Time;durP1;ratioP1;P1;durP2;ratioP2;P2;SDS_P1;SDS_P2;PMS_P1;PMS_P2;Temp;Humidity;BMP_temperature;BMP_pressure;BME280_temperature;BME280_humidity;BME280_pressure;Samples;Min_cycle;Max_cycle;Signal;HPM_P1;HPM_P2
2022/07/30 00:00:24;;;;;;;;;;;;;;;15.68;57.97;100062.69;4929537;29;19935;-65
2022/07/30 00:02:50;;;;;;;;;;;;;;;15.66;58.28;100056.66;4928733;29;19989;-65
2022/07/30 00:05:16;;;;;;;;;;;;;;;15.68;58.33;100056.34;4931769;29;19937;-65
2022/07/30 00:07:41;;;;;;;;;;;;;;;15.65;58.17;100056.94;4944846;29;20454;-66
2022/07/30 00:10:07;;;;;;;;;;;;;;;15.63;58.89;100056.44;4928432;29;20228;-66
2022/07/30 00:12:33;;;;;;;;;;;;;;;15.64;59.22;100053.41;4924947;29;19942;-66
2022/07/30 00:15:00;;;;;;;;;;;;;;;15.65;58.95;100057.78;4941593;29;19931;-67
2022/07/30 00:17:26;;;;;;;;;;;;;;;15.58;59.30;100054.59;4924469;29;20476;-64
2022/07/30 00:19:52;;;;;;;;;;;;;;;15.57;59.23;100062.06;4920373;29;19942;-66
2022/07/30 00:22:17;;;;;;;;;;;;;;;15.55;59.25;100055.19;4930899;29;19938;-67
2022/07/30 00:24:43;;;;;;;;;;;;;;;15.57;59.43;100059.28;4931769;29;19935;-64
2022/07/30 00:27:09;;;;;;;;;;;;;;;15.59;59.37;100054.28;4932249;29;20396;-64
2022/07/30 00:29:35;;;;;;;;;;;;;;;15.58;59.77;100055.41;4923390;29;19931;-64
2022/07/30 00:32:02;;;;;;;;;;;;;;;15.57;59.85;100061.22;4928296;29;20314;-65
2022/07/30 00:34:28;;;;;;;;;;;;;;;15.55;59.59;100060.72;4921580;29;19931;-66
2022/07/30 00:36:54;;;;;;;;;;;;;;;15.44;60.41;100052.59;4913391;29;19946;-65
2022/07/30 00:39:20;;;;;;;;;;;;;;;15.32;60.86;100055.84;4924839;29;20401;-66
2022/07/30 00:41:53;;;;;;;;;;;;;;;15.29;60.95;100059.19;4915581;29;19931;-64
2022/07/30 00:44:18;;;;;;;;;;;;;;;15.31;61.05;100056.16;4929957;29;20038;-65
2022/07/30 00:46:44;;;;;;;;;;;;;;;15.28;61.30;100056.72;4947559;29;20414;-66
2022/07/30 00:49:11;;;;;;;;;;;;;;;15.24;61.36;100052.94;4928407;29;19939;-64
2022/07/30 00:51:37;;;;;;;;;;;;;;;15.19;61.79;100053.84;4922494;29;19938;-65
2022/07/30 00:54:03;;;;;;;;;;;;;;;15.17;61.80;100050.56;4927364;29;20462;-65
2022/07/30 00:56:28;;;;;;;;;;;;;;;15.17;62.26;100056.09;4929457;29;19937;-65
2022/07/30 00:58:54;;;;;;;;;;;;;;;15.10;62.58;100050.94;4928080;29;20313;-65
2022/07/30 01:01:20;;;;;;;;;;;;;;;15.06;63.03;100057.34;4928813;29;19934;-68
2022/07/30 01:03:46;;;;;;;;;;;;;;;15.07;62.91;100053.50;4930310;29;19930;-65
2022/07/30 01:06:13;;;;;;;;;;;;;;;15.05;62.86;100048.28;4928106;29;19938;-66
2022/07/30 01:08:38;;;;;;;;;;;;;;;15.05;63.00;100042.78;4930575;29;20402;-66
2022/07/30 01:11:04;;;;;;;;;;;;;;;15.09;62.83;100046.56;4916927;29;19938;-65
2022/07/30 01:13:30;;;;;;;;;;;;;;;15.11;62.94;100047.06;4926834;29;19974;-66
2022/07/30 01:15:57;;;;;;;;;;;;;;;15.10;63.16;100047.41;4929518;29;20033;-66
2022/07/30 01:19:47;;;;;;;;;;;;;;;15.16;62.82;100044.25;4912044;29;19970;-65
2022/07/30 01:21:11;;;;;;;;;;;;;;;15.18;62.82;100046.69;4927838;29;19930;-66
2022/07/30 01:23:40;;;;;;;;;;;;;;;15.18;63.16;100043.94;4928956;29;19934;-66
2022/07/30 01:26:09;;;;;;;;;;;;;;;15.18;62.89;100043.94;4927990;29;20486;-67
2022/07/30 01:28:37;;;;;;;;;;;;;;;15.21;63.00;100042.53;4926105;29;19970;-65
2022/07/30 01:31:05;;;;;;;;;;;;;;;15.15;63.32;100042.63;4910049;29;20403;-66
2022/07/30 01:33:34;;;;;;;;;;;;;;;15.11;63.61;100046.28;4915967;29;19930;-66
2022/07/30 01:36:00;;;;;;;;;;;;;;;15.11;63.37;100041.56;4927858;29;19958;-66
2022/07/30 01:38:27;;;;;;;;;;;;;;;15.09;63.31;100043.00;4928705;29;19931;-66
2022/07/30 01:40:54;;;;;;;;;;;;;;;15.07;63.59;100035.03;4927455;29;19930;-67
2022/07/30 01:43:22;;;;;;;;;;;;;;;15.07;63.67;100040.53;4924859;29;19931;-66
2022/07/30 01:45:49;;;;;;;;;;;;;;;15.07;63.51;100042.50;4932500;28;19931;-67
2022/07/30 01:48:18;;;;;;;;;;;;;;;15.07;63.48;100045.25;4916383;29;19986;-65
2022/07/30 01:50:45;;;;;;;;;;;;;;;15.04;63.81;100049.41;4932899;29;20493;-67
2022/07/30 01:53:14;;;;;;;;;;;;;;;15.12;63.52;100047.91;4930153;29;19930;-67
2022/07/30 01:55:41;;;;;;;;;;;;;;;15.14;63.60;100049.25;4921474;29;19931;-64
2022/07/30 01:58:08;;;;;;;;;;;;;;;15.12;63.80;100053.41;4928526;29;19935;-66
2022/07/30 02:00:41;;;;;;;;;;;;;;;15.10;64.43;100055.66;4915471;29;19941;-67
2022/07/30 02:03:10;;;;;;;;;;;;;;;15.12;64.85;100056.19;4926197;29;20402;-66
2022/07/30 02:05:36;;;;;;;;;;;;;;;15.07;65.55;100062.56;4911014;29;20378;-67
2022/07/30 02:08:05;;;;;;;;;;;;;;;15.07;65.73;100054.31;4923736;29;20309;-66
2022/07/30 02:10:32;;;;;;;;;;;;;;;15.13;66.08;100061.38;4922071;29;19931;-66
2022/07/30 02:13:00;;;;;;;;;;;;;;;15.19;66.29;100053.84;4912223;29;19958;-65
2022/07/30 02:15:29;;;;;;;;;;;;;;;15.22;65.95;100052.44;4929774;29;19931;-66
2022/07/30 02:17:58;;;;;;;;;;;;;;;15.19;66.02;100058.56;4903918;29;20553;-66
2022/07/30 02:20:26;;;;;;;;;;;;;;;15.26;65.88;100059.81;4929978;29;19950;-66
2022/07/30 02:22:54;;;;;;;;;;;;;;;15.32;66.08;100055.03;4932534;29;20402;-66
2022/07/30 02:25:22;;;;;;;;;;;;;;;15.38;65.69;100059.34;4926602;29;19931;-66
2022/07/30 02:27:51;;;;;;;;;;;;;;;15.42;65.44;100062.31;4896836;29;19941;-65
2022/07/30 02:30:17;;;;;;;;;;;;;;;15.43;65.64;100053.72;4910646;29;19931;-67
2022/07/30 02:32:46;;;;;;;;;;;;;;;15.45;65.45;100053.44;4923326;29;19985;-67
2022/07/30 02:35:16;;;;;;;;;;;;;;;15.50;65.49;100056.09;4931298;29;20393;-66
2022/07/30 02:37:44;;;;;;;;;;;;;;;15.54;65.35;100067.34;4930593;29;19977;-66
2022/07/30 02:40:13;;;;;;;;;;;;;;;15.52;65.41;100064.06;4930027;29;20025;-67
2022/07/30 02:42:40;;;;;;;;;;;;;;;15.53;65.66;100066.53;4927479;29;19930;-67
2022/07/30 02:45:06;;;;;;;;;;;;;;;15.54;65.19;100070.09;4946417;29;19938;-67
2022/07/30 02:47:33;;;;;;;;;;;;;;;15.56;65.52;100071.44;4948946;29;19938;-66
2022/07/30 02:50:02;;;;;;;;;;;;;;;15.60;65.20;100080.72;4924692;29;20364;-67
2022/07/30 02:52:30;;;;;;;;;;;;;;;15.67;65.07;100083.09;4926237;29;19959;-64
2022/07/30 02:54:58;;;;;;;;;;;;;;;15.71;65.18;100081.38;4919353;29;19938;-67
2022/07/30 02:57:24;;;;;;;;;;;;;;;15.74;65.16;100083.50;4944984;29;19978;-65
2022/07/30 02:59:52;;;;;;;;;;;;;;;15.74;65.32;100078.00;4929907;29;19935;-65
2022/07/30 03:02:19;;;;;;;;;;;;;;;15.79;65.11;100081.81;4928854;29;19938;-66
2022/07/30 03:04:47;;;;;;;;;;;;;;;15.83;64.90;100077.31;4931313;29;19937;-66
2022/07/30 03:07:13;;;;;;;;;;;;;;;15.89;64.42;100084.38;4943683;29;20029;-66
2022/07/30 03:09:41;;;;;;;;;;;;;;;15.96;64.60;100084.81;4932604;29;19931;-67
2022/07/30 03:12:08;;;;;;;;;;;;;;;16.06;64.06;100086.56;4926812;29;19931;-65
2022/07/30 03:14:34;;;;;;;;;;;;;;;16.09;63.35;100091.47;4926719;29;19931;-65
2022/07/30 03:17:02;;;;;;;;;;;;;;;16.14;63.00;100083.09;4910202;29;19931;-66
2022/07/30 03:19:29;;;;;;;;;;;;;;;16.16;63.05;100086.38;4913391;29;20021;-66
2022/07/30 03:21:56;;;;;;;;;;;;;;;16.23;62.84;100085.94;4928463;29;19997;-66
2022/07/30 03:24:23;;;;;;;;;;;;;;;16.28;62.53;100076.75;4930489;29;20401;-67
2022/07/30 03:26:50;;;;;;;;;;;;;;;16.31;62.27;100089.94;4927712;29;20012;-67
2022/07/30 03:29:17;;;;;;;;;;;;;;;16.36;61.91;100089.84;4927286;29;20338;-67
2022/07/30 03:31:43;;;;;;;;;;;;;;;16.42;60.98;100094.13;4913505;29;19934;-66
2022/07/30 03:34:09;;;;;;;;;;;;;;;16.50;60.54;100091.78;4928989;29;20343;-65
2022/07/30 03:36:37;;;;;;;;;;;;;;;16.55;59.85;100095.28;4931250;29;20026;-65
2022/07/30 03:39:04;;;;;;;;;;;;;;;16.59;59.63;100092.69;4929503;29;20018;-65
2022/07/30 03:41:30;;;;;;;;;;;;;;;16.64;59.18;100092.59;4914377;29;20053;-67
2022/07/30 03:43:58;;;;;;;;;;;;;;;16.69;59.01;100094.41;4929767;29;19931;-66
2022/07/30 03:46:24;;;;;;;;;;;;;;;16.75;58.47;100092.38;4930470;29;20456;-67
2022/07/30 03:48:51;;;;;;;;;;;;;;;16.82;58.23;100088.06;4930862;29;19931;-64
2022/07/30 03:51:18;;;;;;;;;;;;;;;16.88;57.56;100094.28;4931240;29;19931;-65
2022/07/30 03:53:45;;;;;;;;;;;;;;;16.93;57.19;100099.69;4926107;29;19931;-63
2022/07/30 03:56:34;;;;;;;;;;;;;;;16.97;57.01;100099.88;4931055;29;20007;-65
2022/07/30 03:59:07;;;;;;;;;;;;;;;17.00;57.20;100096.53;4910284;29;20041;-67
2022/07/30 04:01:36;;;;;;;;;;;;;;;17.05;56.99;100096.44;4912951;29;20383;-66
2022/07/30 04:04:11;;;;;;;;;;;;;;;17.13;56.75;100097.63;4930295;29;19930;-66
2022/07/30 04:06:39;;;;;;;;;;;;;;;17.18;56.61;100097.50;4928320;29;20399;-64
2022/07/30 04:09:06;;;;;;;;;;;;;;;17.23;56.46;100094.63;4929893;29;19931;-65
2022/07/30 04:11:31;;;;;;;;;;;;;;;17.28;56.50;100094.50;4912099;29;20001;-67
2022/07/30 04:14:02;;;;;;;;;;;;;;;17.35;56.25;100091.31;4927138;29;20034;-68
2022/07/30 04:16:38;;;;;;;;;;;;;;;17.40;55.95;100101.41;4909786;29;19938;-66
2022/07/30 04:19:08;;;;;;;;;;;;;;;17.47;55.25;100099.03;4909524;29;19973;-66
2022/07/30 04:21:34;;;;;;;;;;;;;;;17.52;55.15;100098.91;4908330;29;19931;-66
2022/07/30 04:24:00;;;;;;;;;;;;;;;17.55;54.52;100101.03;4917896;29;19986;-66
2022/07/30 04:26:27;;;;;;;;;;;;;;;17.58;53.94;100099.59;4916136;29;20593;-67
2022/07/30 04:28:53;;;;;;;;;;;;;;;17.70;53.50;100107.31;4891355;29;19961;-67
2022/07/30 04:31:19;;;;;;;;;;;;;;;17.77;53.24;100106.84;4911369;29;20038;-66
2022/07/30 04:33:46;;;;;;;;;;;;;;;17.82;52.86;100099.25;4924485;29;20323;-66
2022/07/30 04:36:21;;;;;;;;;;;;;;;17.85;52.38;100104.13;4907375;29;19931;-67
2022/07/30 04:38:46;;;;;;;;;;;;;;;17.86;52.05;100100.25;4910225;29;20314;-67
2022/07/30 04:41:12;;;;;;;;;;;;;;;17.91;51.81;100104.81;4927737;29;20402;-65
2022/07/30 04:44:01;;;;;;;;;;;;;;;18.01;51.15;100098.19;4929632;29;19945;-65
2022/07/30 04:46:29;;;;;;;;;;;;;;;18.07;50.31;100099.75;4941206;29;20491;-64
2022/07/30 04:48:56;;;;;;;;;;;;;;;18.10;49.89;100109.34;4925473;29;20038;-65
2022/07/30 04:51:27;;;;;;;;;;;;;;;18.01;49.34;100087.13;4926825;29;19931;-65
2022/07/30 04:53:54;;;;;;;;;;;;;;;18.15;48.82;100109.22;4927628;29;19931;-66
2022/07/30 04:56:21;;;;;;;;;;;;;;;18.15;48.06;100117.53;4928230;29;20387;-65
2022/07/30 04:58:47;;;;;;;;;;;;;;;18.17;48.40;100114.41;4925695;29;19937;-66
2022/07/30 05:01:15;;;;;;;;;;;;;;;18.20;48.52;100119.34;4912032;29;19931;-66
2022/07/30 05:03:43;;;;;;;;;;;;;;;18.28;48.68;100113.00;4908394;29;19931;-66
2022/07/30 05:06:11;;;;;;;;;;;;;;;18.35;48.85;100116.16;4892133;29;19949;-66
2022/07/30 05:08:38;;;;;;;;;;;;;;;18.37;47.61;100113.03;4926943;29;19931;-66
2022/07/30 05:11:09;;;;;;;;;;;;;;;18.37;47.55;100116.63;4927736;29;20021;-66
2022/07/30 05:13:35;;;;;;;;;;;;;;;18.39;47.21;100116.31;4928023;29;19938;-65
2022/07/30 05:16:03;;;;;;;;;;;;;;;18.40;47.06;100124.28;4926640;29;20402;-65
2022/07/30 05:18:28;;;;;;;;;;;;;;;18.43;47.04;100120.88;4924208;29;19930;-66
2022/07/30 05:20:54;;;;;;;;;;;;;;;18.51;47.36;100124.81;4926603;29;20198;-66
2022/07/30 05:23:34;;;;;;;;;;;;;;;18.61;47.42;100122.91;4910752;29;19930;-65
2022/07/30 05:26:07;;;;;;;;;;;;;;;18.63;47.75;100115.09;4926017;29;19931;-66
2022/07/30 05:28:38;;;;;;;;;;;;;;;18.64;47.47;100117.50;4910626;29;19935;-67
2022/07/30 05:31:06;;;;;;;;;;;;;;;18.64;47.11;100125.03;4928353;29;20029;-67
2022/07/30 05:33:32;;;;;;;;;;;;;;;18.65;47.05;100121.13;4894111;29;20034;-66
2022/07/30 05:35:59;;;;;;;;;;;;;;;18.66;47.10;100120.81;4924195;29;19937;-67
2022/07/30 05:38:25;;;;;;;;;;;;;;;18.69;47.38;100122.09;4922594;29;19990;-65
2022/07/30 05:41:18;;;;;;;;;;;;;;;18.74;47.36;100121.97;4923289;29;19986;-65
2022/07/30 05:44:02;;;;;;;;;;;;;;;18.79;46.49;100124.56;4927990;29;19931;-67
2022/07/30 05:46:29;;;;;;;;;;;;;;;18.81;46.20;100124.22;4926355;29;20417;-67
2022/07/30 05:48:55;;;;;;;;;;;;;;;18.80;45.76;100126.19;4927658;29;19930;-66
2022/07/30 05:51:21;;;;;;;;;;;;;;;18.77;45.94;100121.31;4926078;29;20449;-67
2022/07/30 05:53:47;;;;;;;;;;;;;;;18.75;45.91;100131.06;4925152;29;20717;-69
2022/07/30 05:56:34;;;;;;;;;;;;;;;18.78;46.07;100127.66;4926799;29;19931;-66
2022/07/30 05:59:07;;;;;;;;;;;;;;;18.88;46.53;100132.91;4920843;29;20021;-66
2022/07/30 06:02:08;;;;;;;;;;;;;;;18.98;46.02;100132.59;4920822;29;19937;-67
2022/07/30 06:04:49;;;;;;;;;;;;;;;18.97;45.97;100125.44;4928062;29;19938;-67
2022/07/30 06:07:16;;;;;;;;;;;;;;;18.82;45.99;100137.78;4926515;29;19931;-67
2022/07/30 06:09:41;;;;;;;;;;;;;;;18.71;46.63;100130.88;4942539;29;19938;-67
2022/07/30 06:12:10;;;;;;;;;;;;;;;18.70;46.65;100130.09;4927176;29;19931;-67
2022/07/30 06:14:36;;;;;;;;;;;;;;;18.77;46.40;100126.84;4928120;29;20390;-65
2022/07/30 06:17:06;;;;;;;;;;;;;;;18.96;45.79;100120.19;4929097;29;19938;-66
2022/07/30 06:19:54;;;;;;;;;;;;;;;19.18;45.74;100124.81;4931471;29;20252;-67
2022/07/30 06:22:23;;;;;;;;;;;;;;;19.20;45.53;100121.69;4925337;29;19931;-67
2022/07/30 06:24:49;;;;;;;;;;;;;;;19.44;44.83;100115.69;4925040;29;19971;-68
2022/07/30 06:27:22;;;;;;;;;;;;;;;19.76;44.31;100112.69;4925921;29;19982;-66
2022/07/30 06:29:49;;;;;;;;;;;;;;;19.97;44.27;100121.97;4916334;29;19950;-67
2022/07/30 06:32:16;;;;;;;;;;;;;;;19.96;43.54;100120.34;4918983;29;19931;-67
2022/07/30 06:34:42;;;;;;;;;;;;;;;19.97;43.53;100121.16;4929063;29;20033;-67
2022/07/30 06:37:09;;;;;;;;;;;;;;;19.87;43.67;100124.25;4938841;29;19931;-67
2022/07/30 06:39:35;;;;;;;;;;;;;;;19.84;43.61;100126.53;4937447;29;20029;-65
2022/07/30 06:42:23;;;;;;;;;;;;;;;20.05;43.42;100123.09;4929799;29;19970;-66
2022/07/30 06:45:15;;;;;;;;;;;;;;;20.14;43.09;100123.09;4914657;29;19938;-66
2022/07/30 06:48:19;;;;;;;;;;;;;;;;;;4914326;29;20059;-67
2022/07/30 06:50:45;;;;;;;;;;;;;;;20.25;42.34;100131.84;4894981;29;20102;-67
2022/07/30 06:53:10;;;;;;;;;;;;;;;20.25;42.47;100127.09;4909204;29;19955;-67
2022/07/30 06:55:56;;;;;;;;;;;;;;;20.46;42.02;100125.56;4911736;29;19931;-67
2022/07/30 06:58:25;;;;;;;;;;;;;;;20.72;41.77;100128.19;4908927;29;19938;-67
2022/07/30 07:01:14;;;;;;;;;;;;;;;21.35;40.81;100119.09;4905650;29;20359;-67
2022/07/30 07:03:39;;;;;;;;;;;;;;;21.61;39.59;100118.06;4910200;29;19931;-67
2022/07/30 07:06:05;;;;;;;;;;;;;;;21.48;39.76;100125.56;4908281;29;20315;-66
2022/07/30 07:08:31;;;;;;;;;;;;;;;21.47;40.07;100123.94;4909987;29;19935;-67
2022/07/30 07:10:57;;;;;;;;;;;;;;;21.65;39.48;100126.53;4900830;29;19966;-66
2022/07/30 07:13:33;;;;;;;;;;;;;;;21.89;39.08;100122.22;4876987;29;20347;-66
2022/07/30 07:16:01;;;;;;;;;;;;;;;22.43;38.46;100121.25;4909296;29;19983;-67
2022/07/30 07:18:29;;;;;;;;;;;;;;;22.48;38.18;100125.81;4915313;29;20022;-66
2022/07/30 07:21:02;;;;;;;;;;;;;;;22.27;38.84;100128.66;4912009;29;20316;-67
2022/07/30 07:23:28;;;;;;;;;;;;;;;22.05;39.02;100130.72;4920518;29;19937;-65
2022/07/30 07:25:54;;;;;;;;;;;;;;;21.61;39.64;100142.25;4929157;29;20033;-67
2022/07/30 07:28:20;;;;;;;;;;;;;;;21.59;39.01;100130.66;4913672;29;19937;-65
2022/07/30 07:30:49;;;;;;;;;;;;;;;21.71;38.63;100139.09;4928771;29;19950;-67
2022/07/30 07:33:16;;;;;;;;;;;;;;;21.65;38.39;100132.94;4929001;29;19931;-65
2022/07/30 07:35:43;;;;;;;;;;;;;;;21.89;37.86;100133.34;4930626;29;20322;-66
2022/07/30 07:38:09;;;;;;;;;;;;;;;22.19;37.58;100128.44;4933848;29;19931;-65
2022/07/30 07:40:34;;;;;;;;;;;;;;;22.30;37.63;100125.19;4928370;29;19981;-67
2022/07/30 07:43:00;;;;;;;;;;;;;;;22.55;37.24;100128.03;4924973;29;20434;-66
2022/07/30 07:45:26;;;;;;;;;;;;;;;22.98;36.97;100118.22;4928550;29;19998;-67
2022/07/30 07:48:02;;;;;;;;;;;;;;;23.15;36.25;100133.06;4929607;29;19986;-67
2022/07/30 07:50:54;;;;;;;;;;;;;;;22.93;36.85;100116.50;4931159;29;19978;-65
2022/07/30 07:53:24;;;;;;;;;;;;;;;22.52;37.46;100116.41;4929685;29;19953;-67
2022/07/30 07:55:50;;;;;;;;;;;;;;;22.12;37.98;100113.47;4929765;29;19931;-66
2022/07/30 07:58:17;;;;;;;;;;;;;;;22.04;38.64;100117.97;4926259;29;19931;-67
2022/07/30 08:00:43;;;;;;;;;;;;;;;22.21;36.48;100112.19;4928989;29;19970;-67
2022/07/30 08:03:11;;;;;;;;;;;;;;;22.39;36.43;100109.19;4928275;29;20026;-67
2022/07/30 08:05:36;;;;;;;;;;;;;;;22.87;35.70;100106.75;4914915;29;19939;-67
2022/07/30 08:08:16;;;;;;;;;;;;;;;23.56;34.43;100105.16;4930225;29;19931;-67
2022/07/30 08:11:20;;;;;;;;;;;;;;;23.76;33.86;100092.94;4928592;29;19942;-67
2022/07/30 08:14:20;;;;;;;;;;;;;;;23.33;33.88;100100.13;4916951;29;20377;-66
2022/07/30 08:17:12;;;;;;;;;;;;;;;23.26;32.59;100109.13;4876118;29;19931;-66
2022/07/30 08:19:59;;;;;;;;;;;;;;;23.35;33.06;100095.81;4922533;29;19998;-67
2022/07/30 08:22:26;;;;;;;;;;;;;;;23.75;33.05;100096.13;4890035;29;19947;-66
2022/07/30 08:24:52;;;;;;;;;;;;;;;24.14;31.04;100096.34;4909939;29;19978;-67
2022/07/30 08:27:18;;;;;;;;;;;;;;;23.70;31.39;100087.97;4918159;29;20584;-65
2022/07/30 08:29:44;;;;;;;;;;;;;;;23.74;32.12;100080.53;4924837;29;20225;-67
2022/07/30 08:32:09;;;;;;;;;;;;;;;24.19;31.84;100082.09;4914363;29;19938;-65
2022/07/30 08:34:37;;;;;;;;;;;;;;;24.81;31.28;100093.94;4893314;29;19935;-69
2022/07/30 08:37:05;;;;;;;;;;;;;;;24.86;30.81;100091.66;4902066;29;19973;-67
2022/07/30 08:39:31;;;;;;;;;;;;;;;24.72;31.11;100096.91;4923723;29;20363;-68
2022/07/30 08:41:57;;;;;;;;;;;;;;;24.68;31.41;100084.84;4907470;29;20022;-66
2022/07/30 08:44:23;;;;;;;;;;;;;;;24.38;32.34;100079.75;4928529;29;19930;-65
2022/07/30 08:46:51;;;;;;;;;;;;;;;25.24;31.02;100080.88;4927169;29;19969;-66
2022/07/30 08:49:26;;;;;;;;;;;;;;;26.01;30.12;100077.53;4928622;29;19930;-67
2022/07/30 08:51:53;;;;;;;;;;;;;;;25.47;31.02;100074.53;4935526;28;19931;-68
2022/07/30 08:54:49;;;;;;;;;;;;;;;24.48;32.20;100070.81;4922269;29;20227;-65
2022/07/30 08:57:15;;;;;;;;;;;;;;;24.98;32.08;100076.75;4945830;28;20371;-66
2022/07/30 08:59:41;;;;;;;;;;;;;;;25.40;31.63;100061.22;4929332;29;19962;-64
2022/07/30 09:02:07;;;;;;;;;;;;;;;25.13;32.22;100079.84;4935090;29;19930;-65
2022/07/30 09:04:40;;;;;;;;;;;;;;;26.19;30.69;100075.06;4928435;29;19978;-65
2022/07/30 09:07:06;;;;;;;;;;;;;;;27.03;29.46;100071.50;4926675;29;19935;-65
2022/07/30 09:09:31;;;;;;;;;;;;;;;27.20;28.72;100078.53;4926748;29;20178;-65
2022/07/30 09:11:59;;;;;;;;;;;;;;;27.50;28.16;100074.03;4927793;29;19973;-65
2022/07/30 09:14:25;;;;;;;;;;;;;;;28.51;27.10;100072.19;4929254;29;20469;-66
2022/07/30 09:16:55;;;;;;;;;;;;;;;29.02;25.23;100064.03;4926013;29;20410;-66
2022/07/30 09:19:21;;;;;;;;;;;;;;;29.09;24.84;100077.34;4910742;29;19970;-66
2022/07/30 09:21:53;;;;;;;;;;;;;;;28.96;25.51;100060.78;4916049;29;19977;-67
2022/07/30 09:24:24;;;;;;;;;;;;;;;27.39;27.21;100073.94;4915057;29;19957;-66
2022/07/30 09:27:09;;;;;;;;;;;;;;;27.19;27.64;100068.50;4919358;29;19931;-66
2022/07/30 09:29:55;;;;;;;;;;;;;;;26.48;28.71;100069.91;4916311;29;20321;-67
2022/07/30 09:32:46;;;;;;;;;;;;;;;25.03;30.81;100068.06;4914870;29;19959;-66
2022/07/30 09:35:40;;;;;;;;;;;;;;;25.33;30.87;100075.06;4911652;29;19962;-67
2022/07/30 09:38:10;;;;;;;;;;;;;;;26.62;28.82;100072.13;4915646;29;19935;-67
2022/07/30 09:40:48;;;;;;;;;;;;;;;28.30;26.35;100062.38;4920765;29;20021;-68
2022/07/30 09:43:40;;;;;;;;;;;;;;;29.30;25.07;100068.97;4917880;29;19962;-66
2022/07/30 09:46:11;;;;;;;;;;;;;;;29.69;24.23;100067.47;4913801;29;20406;-67
2022/07/30 09:48:37;;;;;;;;;;;;;;;28.17;26.40;100067.50;4913550;29;20519;-67
2022/07/30 09:51:03;;;;;;;;;;;;;;;26.35;28.88;100085.31;4921618;29;20291;-65
2022/07/30 09:53:30;;;;;;;;;;;;;;;25.37;30.62;100087.16;4922746;29;20021;-66
2022/07/30 09:55:56;;;;;;;;;;;;;;;26.64;28.82;100080.94;4920526;29;19938;-66
2022/07/30 09:58:36;;;;;;;;;;;;;;;28.20;26.73;100076.34;4919447;29;19978;-65
2022/07/30 10:01:03;;;;;;;;;;;;;;;29.13;25.28;100075.34;4911735;29;19935;-65
2022/07/30 10:03:47;;;;;;;;;;;;;;;29.83;24.26;100083.59;4902651;29;19931;-66
2022/07/30 10:06:32;;;;;;;;;;;;;;;29.94;24.27;100068.72;4925032;29;20013;-66
2022/07/30 10:08:58;;;;;;;;;;;;;;;30.13;23.81;100070.34;4926636;29;19980;-65
2022/07/30 10:11:25;;;;;;;;;;;;;;;30.46;23.68;100059.06;4922783;29;19966;-66
2022/07/30 10:13:57;;;;;;;;;;;;;;;31.56;22.04;100063.91;4924096;29;19930;-66
2022/07/30 10:16:26;;;;;;;;;;;;;;;31.99;21.06;100065.63;4920514;29;20341;-65
2022/07/30 10:18:56;;;;;;;;;;;;;;;32.13;21.42;100067.53;4917860;29;20033;-66
2022/07/30 10:21:42;;;;;;;;;;;;;;;32.65;20.46;100063.84;4925281;29;19935;-66
2022/07/30 10:24:27;;;;;;;;;;;;;;;32.02;20.02;100073.28;4930495;29;19931;-65
2022/07/30 10:27:13;;;;;;;;;;;;;;;30.91;21.06;100072.66;4928280;29;19931;-67
2022/07/30 10:29:57;;;;;;;;;;;;;;;30.82;20.93;100061.81;4906812;29;19935;-67
2022/07/30 10:32:25;;;;;;;;;;;;;;;30.55;21.34;100048.97;4922951;29;19938;-66
2022/07/30 10:34:51;;;;;;;;;;;;;;;30.07;22.50;100057.88;4920521;29;19937;-67
2022/07/30 10:37:18;;;;;;;;;;;;;;;29.16;23.27;100054.84;4922960;29;20029;-67
2022/07/30 10:39:46;;;;;;;;;;;;;;;28.97;23.74;100056.78;4919832;29;19946;-67
2022/07/30 10:42:21;;;;;;;;;;;;;;;27.69;24.93;100059.03;4919861;29;20351;-67
2022/07/30 10:45:08;;;;;;;;;;;;;;;26.43;26.41;100057.03;4916862;29;20033;-67
2022/07/30 10:47:36;;;;;;;;;;;;;;;27.53;25.64;100065.69;4914797;29;19931;-66
2022/07/30 10:50:09;;;;;;;;;;;;;;;29.81;22.61;100057.81;4919428;29;19987;-67
2022/07/30 10:52:45;;;;;;;;;;;;;;;31.09;21.04;100059.28;4925735;29;19966;-67
2022/07/30 10:55:11;;;;;;;;;;;;;;;31.60;21.03;100058.22;4915699;29;20230;-65
2022/07/30 10:57:55;;;;;;;;;;;;;;;31.74;20.49;100060.97;4919843;29;19941;-67
2022/07/30 11:00:21;;;;;;;;;;;;;;;32.10;19.74;100060.69;4916689;29;19966;-67
2022/07/30 11:03:05;;;;;;;;;;;;;;;32.84;19.09;100064.44;4923961;29;20410;-65
2022/07/30 11:05:33;;;;;;;;;;;;;;;33.89;18.13;100048.06;5134997;23;20300;-70
2022/07/30 11:08:26;;;;;;;;;;;;;;;34.75;17.54;100057.09;4925552;29;20051;-71
2022/07/30 11:10:52;;;;;;;;;;;;;;;35.25;16.95;100048.78;4937248;29;19930;-70
2022/07/30 11:13:38;;;;;;;;;;;;;;;34.14;16.15;100056.16;4949672;28;19937;-72
2022/07/30 11:16:04;;;;;;;;;;;;;;;32.26;18.55;100048.03;4948316;28;19950;-71
2022/07/30 11:18:29;;;;;;;;;;;;;;;31.86;18.38;100050.41;4942088;28;19953;-68
2022/07/30 11:21:16;;;;;;;;;;;;;;;31.14;19.21;100046.75;4955664;28;20344;-67
2022/07/30 11:23:43;;;;;;;;;;;;;;;29.57;21.52;100037.69;4954716;28;20035;-68
2022/07/30 11:26:08;;;;;;;;;;;;;;;29.39;22.00;100036.81;4947198;28;20273;-68
2022/07/30 11:28:36;;;;;;;;;;;;;;;29.76;21.23;100043.34;4949819;28;19986;-68
2022/07/30 11:31:02;;;;;;;;;;;;;;;31.14;20.00;100046.75;4943731;28;19944;-67
2022/07/30 11:33:28;;;;;;;;;;;;;;;32.78;18.66;100041.44;4948263;28;19930;-67
2022/07/30 11:36:08;;;;;;;;;;;;;;;34.37;16.87;100037.50;4943234;28;19977;-68
2022/07/30 11:38:55;;;;;;;;;;;;;;;34.81;16.56;100025.34;4938917;28;19934;-66
2022/07/30 11:41:21;;;;;;;;;;;;;;;35.51;16.23;100036.81;4958500;28;20404;-67
2022/07/30 11:43:46;;;;;;;;;;;;;;;35.88;15.61;100034.72;4950438;28;19930;-66
2022/07/30 11:46:13;;;;;;;;;;;;;;;35.96;14.90;100041.84;4948040;28;20180;-68
2022/07/30 11:48:40;;;;;;;;;;;;;;;34.92;15.66;100029.53;4944065;28;19949;-68
2022/07/30 11:51:07;;;;;;;;;;;;;;;34.63;15.73;100032.19;4943353;29;19931;-66
2022/07/30 11:53:33;;;;;;;;;;;;;;;34.44;15.49;100030.91;4941324;28;19938;-67
2022/07/30 11:56:01;;;;;;;;;;;;;;;33.89;16.19;100031.84;4944622;28;20001;-67
2022/07/30 11:58:28;;;;;;;;;;;;;;;32.77;16.96;100031.34;4942226;29;20021;-68
2022/07/30 12:00:55;;;;;;;;;;;;;;;31.12;19.08;100030.22;4938672;28;20369;-67
2022/07/30 12:03:22;;;;;;;;;;;;;;;30.06;19.77;100034.53;4922370;29;19930;-67
2022/07/30 12:05:48;;;;;;;;;;;;;;;31.35;19.18;100034.56;4951631;28;20468;-67
2022/07/30 12:08:15;;;;;;;;;;;;;;;32.54;17.96;100035.63;4950902;28;19970;-67
2022/07/30 12:10:41;;;;;;;;;;;;;;;32.06;18.15;100042.16;4955586;28;19930;-67
2022/07/30 12:13:10;;;;;;;;;;;;;;;31.96;18.44;100033.38;4948689;28;19937;-68
2022/07/30 12:15:36;;;;;;;;;;;;;;;31.00;18.98;100044.81;4949521;28;20426;-68
2022/07/30 12:18:02;;;;;;;;;;;;;;;29.85;20.12;100027.66;4950159;28;19931;-67
2022/07/30 12:20:28;;;;;;;;;;;;;;;29.41;20.43;100031.59;4945427;28;20503;-67
2022/07/30 12:22:54;;;;;;;;;;;;;;;29.23;20.61;100032.34;4949627;28;19973;-68
2022/07/30 12:25:20;;;;;;;;;;;;;;;30.29;20.04;100019.22;4949646;28;20379;-68
2022/07/30 12:27:47;;;;;;;;;;;;;;;31.68;18.68;100035.16;4949940;28;19954;-67
2022/07/30 12:30:15;;;;;;;;;;;;;;;31.90;18.50;100026.53;4944693;28;19953;-68
2022/07/30 12:32:41;;;;;;;;;;;;;;;30.13;19.69;100037.34;4945890;28;19930;-67
2022/07/30 12:35:07;;;;;;;;;;;;;;;28.57;21.53;100027.63;4941691;28;19978;-67
2022/07/30 12:37:33;;;;;;;;;;;;;;;29.65;20.63;100023.59;4945414;28;19938;-67
2022/07/30 12:40:09;;;;;;;;;;;;;;;32.59;17.88;100017.41;4946363;28;19930;-66
2022/07/30 12:42:47;;;;;;;;;;;;;;;34.73;16.25;100007.66;4949972;28;19930;-66
2022/07/30 12:45:25;;;;;;;;;;;;;;;35.69;14.94;100013.69;4945216;28;19981;-68
2022/07/30 12:47:51;;;;;;;;;;;;;;;34.52;15.71;100023.09;4949036;28;19935;-68
2022/07/30 12:50:17;;;;;;;;;;;;;;;34.47;15.65;100010.16;4954655;28;19942;-66
2022/07/30 12:52:47;;;;;;;;;;;;;;;35.36;15.27;100022.94;4972688;28;19934;-68